sensor_id;sensor_type;location;lat;lon;timestamp;pressure;altitude;pressure_sealevel;temperature;humidity
51972;BME280;37991;49.662;10.060;2024-02-28T00:01:02;99331.72;;;5.35;94.42
51972;BME280;37991;49.662;10.060;2024-02-28T00:03:27;99332.50;;;5.37;93.44
51972;BME280;37991;49.662;10.060;2024-02-28T00:05:52;99334.09;;;5.40;93.34
51972;BME280;37991;49.662;10.060;2024-02-28T00:08:18;99331.13;;;5.30;93.74
51972;BME280;37991;49.662;10.060;2024-02-28T00:10:45;99326.91;;;5.27;93.80
51972;BME280;37991;49.662;10.060;2024-02-28T00:13:10;99329.56;;;5.26;93.77
51972;BME280;37991;49.662;10.060;2024-02-28T00:15:36;99328.31;;;5.16;93.82
51972;BME280;37991;49.662;10.060;2024-02-28T00:18:01;99337.28;;;5.27;94.49
51972;BME280;37991;49.662;10.060;2024-02-28T00:20:28;99329.84;;;5.20;94.64
51972;BME280;37991;49.662;10.060;2024-02-28T00:22:54;99334.16;;;5.21;95.77
51972;BME280;37991;49.662;10.060;2024-02-28T00:25:20;99332.38;;;5.21;96.11
51972;BME280;37991;49.662;10.060;2024-02-28T00:27:45;99337.50;;;5.23;96.90
51972;BME280;37991;49.662;10.060;2024-02-28T00:30:11;99345.13;;;5.26;97.62
51972;BME280;37991;49.662;10.060;2024-02-28T00:32:36;99339.09;;;5.25;96.99
51972;BME280;37991;49.662;10.060;2024-02-28T00:35:02;99348.53;;;5.28;97.75
51972;BME280;37991;49.662;10.060;2024-02-28T00:37:27;99352.28;;;5.40;96.95
51972;BME280;37991;49.662;10.060;2024-02-28T00:39:53;99354.78;;;5.41;95.65
51972;BME280;37991;49.662;10.060;2024-02-28T00:42:18;99346.16;;;5.23;95.49
51972;BME280;37991;49.662;10.060;2024-02-28T00:44:44;99348.91;;;5.20;95.92
51972;BME280;37991;49.662;10.060;2024-02-28T00:47:10;99344.59;;;5.19;95.66
51972;BME280;37991;49.662;10.060;2024-02-28T00:49:35;99348.94;;;5.19;96.62
51972;BME280;37991;49.662;10.060;2024-02-28T00:52:00;99357.72;;;5.16;96.25
51972;BME280;37991;49.662;10.060;2024-02-28T00:54:26;99355.91;;;5.18;95.71
51972;BME280;37991;49.662;10.060;2024-02-28T00:56:51;99358.13;;;5.26;95.74
51972;BME280;37991;49.662;10.060;2024-02-28T00:59:18;99374.16;;;5.17;95.23
51972;BME280;37991;49.662;10.060;2024-02-28T01:01:43;99379.56;;;5.12;95.91
51972;BME280;37991;49.662;10.060;2024-02-28T01:04:08;99372.41;;;5.17;95.67
51972;BME280;37991;49.662;10.060;2024-02-28T01:06:34;99375.50;;;5.06;95.75
51972;BME280;37991;49.662;10.060;2024-02-28T01:08:59;99373.97;;;5.02;96.53
51972;BME280;37991;49.662;10.060;2024-02-28T01:11:25;99374.09;;;4.99;96.66
51972;BME280;37991;49.662;10.060;2024-02-28T01:13:50;99362.25;;;4.94;96.27
51972;BME280;37991;49.662;10.060;2024-02-28T01:16:16;99369.19;;;4.93;96.19
51972;BME280;37991;49.662;10.060;2024-02-28T01:18:42;99373.56;;;4.93;96.68
51972;BME280;37991;49.662;10.060;2024-02-28T01:21:07;99375.72;;;5.02;96.42
51972;BME280;37991;49.662;10.060;2024-02-28T01:23:33;99377.81;;;4.94;96.38
51972;BME280;37991;49.662;10.060;2024-02-28T01:25:58;99370.19;;;4.90;96.61
51972;BME280;37991;49.662;10.060;2024-02-28T01:28:24;99375.50;;;4.87;97.03
51972;BME280;37991;49.662;10.060;2024-02-28T01:30:49;99371.66;;;4.96;97.01
51972;BME280;37991;49.662;10.060;2024-02-28T01:33:14;99373.69;;;4.89;96.10
51972;BME280;37991;49.662;10.060;2024-02-28T01:35:40;99373.69;;;4.89;96.00
51972;BME280;37991;49.662;10.060;2024-02-28T01:38:05;99384.50;;;4.80;96.36
51972;BME280;37991;49.662;10.060;2024-02-28T01:40:30;99377.63;;;4.79;96.42
51972;BME280;37991;49.662;10.060;2024-02-28T01:43:03;99384.91;;;4.90;96.32
51972;BME280;37991;49.662;10.060;2024-02-28T01:45:29;99382.81;;;4.79;96.46
51972;BME280;37991;49.662;10.060;2024-02-28T01:47:54;99382.41;;;4.70;96.37
51972;BME280;37991;49.662;10.060;2024-02-28T01:50:20;99381.19;;;4.77;96.44
51972;BME280;37991;49.662;10.060;2024-02-28T01:52:45;99381.56;;;4.69;96.84
51972;BME280;37991;49.662;10.060;2024-02-28T01:55:10;99380.91;;;4.64;97.27
51972;BME280;37991;49.662;10.060;2024-02-28T01:57:36;99384.06;;;4.71;96.95
51972;BME280;37991;49.662;10.060;2024-02-28T02:00:03;99382.31;;;4.71;97.74
51972;BME280;37991;49.662;10.060;2024-02-28T02:02:30;99382.25;;;4.73;96.84
51972;BME280;37991;49.662;10.060;2024-02-28T02:04:55;99376.19;;;4.72;96.58
51972;BME280;37991;49.662;10.060;2024-02-28T02:07:23;99372.06;;;4.68;96.89
51972;BME280;37991;49.662;10.060;2024-02-28T02:09:49;99371.94;;;4.71;96.51
51972;BME280;37991;49.662;10.060;2024-02-28T02:12:15;99377.25;;;4.68;96.44
51972;BME280;37991;49.662;10.060;2024-02-28T02:14:41;99368.13;;;4.59;96.22
51972;BME280;37991;49.662;10.060;2024-02-28T02:17:07;99368.34;;;4.55;96.51
51972;BME280;37991;49.662;10.060;2024-02-28T02:19:32;99374.66;;;4.68;96.55
51972;BME280;37991;49.662;10.060;2024-02-28T02:21:58;99356.03;;;4.60;95.79
51972;BME280;37991;49.662;10.060;2024-02-28T02:24:23;99365.63;;;4.58;96.28
51972;BME280;37991;49.662;10.060;2024-02-28T02:26:54;99365.47;;;4.61;95.84
51972;BME280;37991;49.662;10.060;2024-02-28T02:29:20;99363.88;;;4.58;96.15
51972;BME280;37991;49.662;10.060;2024-02-28T02:31:46;99376.13;;;4.55;95.46
51972;BME280;37991;49.662;10.060;2024-02-28T02:34:12;99371.88;;;4.54;95.71
51972;BME280;37991;49.662;10.060;2024-02-28T02:36:39;99380.28;;;4.59;96.04
51972;BME280;37991;49.662;10.060;2024-02-28T02:39:04;99376.50;;;4.47;95.94
51972;BME280;37991;49.662;10.060;2024-02-28T02:41:29;99389.91;;;4.57;96.09
51972;BME280;37991;49.662;10.060;2024-02-28T02:43:55;99391.00;;;4.51;96.00
51972;BME280;37991;49.662;10.060;2024-02-28T02:46:20;99404.88;;;4.50;96.40
51972;BME280;37991;49.662;10.060;2024-02-28T02:48:45;99404.94;;;4.49;96.39
51972;BME280;37991;49.662;10.060;2024-02-28T02:51:11;99413.25;;;4.57;96.45
51972;BME280;37991;49.662;10.060;2024-02-28T02:53:36;99421.06;;;4.55;96.08
51972;BME280;37991;49.662;10.060;2024-02-28T02:56:05;99412.72;;;4.49;95.89
51972;BME280;37991;49.662;10.060;2024-02-28T02:58:30;99419.41;;;4.54;95.98
51972;BME280;37991;49.662;10.060;2024-02-28T03:00:56;99424.59;;;4.54;96.41
51972;BME280;37991;49.662;10.060;2024-02-28T03:03:21;99438.50;;;4.53;96.37
51972;BME280;37991;49.662;10.060;2024-02-28T03:05:46;99443.38;;;4.59;96.16
51972;BME280;37991;49.662;10.060;2024-02-28T03:08:12;99445.22;;;4.57;96.08
51972;BME280;37991;49.662;10.060;2024-02-28T03:10:37;99452.03;;;4.60;95.78
51972;BME280;37991;49.662;10.060;2024-02-28T03:13:03;99457.72;;;4.68;95.63
51972;BME280;37991;49.662;10.060;2024-02-28T03:15:28;99463.75;;;4.69;95.58
51972;BME280;37991;49.662;10.060;2024-02-28T03:17:54;99468.22;;;4.65;95.20
51972;BME280;37991;49.662;10.060;2024-02-28T03:20:19;99474.91;;;4.71;95.35
51972;BME280;37991;49.662;10.060;2024-02-28T03:22:45;99469.97;;;4.64;95.66
51972;BME280;37991;49.662;10.060;2024-02-28T03:25:10;99475.13;;;4.66;95.27
51972;BME280;37991;49.662;10.060;2024-02-28T03:27:35;99472.00;;;4.58;95.77
51972;BME280;37991;49.662;10.060;2024-02-28T03:30:01;99477.19;;;4.58;95.62
51972;BME280;37991;49.662;10.060;2024-02-28T03:32:27;99482.63;;;4.72;95.59
51972;BME280;37991;49.662;10.060;2024-02-28T03:34:52;99486.91;;;4.73;95.35
51972;BME280;37991;49.662;10.060;2024-02-28T03:37:18;99490.69;;;4.66;95.12
51972;BME280;37991;49.662;10.060;2024-02-28T03:39:45;99488.81;;;4.70;95.08
51972;BME280;37991;49.662;10.060;2024-02-28T03:42:10;99477.97;;;4.60;94.70
51972;BME280;37991;49.662;10.060;2024-02-28T03:44:35;99495.56;;;4.53;95.18
51972;BME280;37991;49.662;10.060;2024-02-28T03:47:01;99489.00;;;4.45;95.79
51972;BME280;37991;49.662;10.060;2024-02-28T03:49:26;99492.19;;;4.51;96.10
51972;BME280;37991;49.662;10.060;2024-02-28T03:51:52;99490.28;;;4.55;96.52
51972;BME280;37991;49.662;10.060;2024-02-28T03:54:17;99499.88;;;4.53;96.65
51972;BME280;37991;49.662;10.060;2024-02-28T03:56:42;99499.13;;;4.51;96.71
51972;BME280;37991;49.662;10.060;2024-02-28T03:59:07;99496.19;;;4.58;96.77
51972;BME280;37991;49.662;10.060;2024-02-28T04:01:33;99508.53;;;4.53;96.81
51972;BME280;37991;49.662;10.060;2024-02-28T04:03:58;99505.22;;;4.50;96.31
51972;BME280;37991;49.662;10.060;2024-02-28T04:06:24;99510.25;;;4.53;96.20
51972;BME280;37991;49.662;10.060;2024-02-28T04:08:49;99506.25;;;4.46;96.21
51972;BME280;37991;49.662;10.060;2024-02-28T04:11:15;99520.00;;;4.48;96.36
51972;BME280;37991;49.662;10.060;2024-02-28T04:13:40;99520.59;;;4.54;96.69
51972;BME280;37991;49.662;10.060;2024-02-28T04:16:08;99513.78;;;4.52;96.65
51972;BME280;37991;49.662;10.060;2024-02-28T04:18:33;99522.47;;;4.51;96.01
51972;BME280;37991;49.662;10.060;2024-02-28T04:20:58;99511.44;;;4.46;96.32
51972;BME280;37991;49.662;10.060;2024-02-28T04:23:24;99521.56;;;4.52;95.73
51972;BME280;37991;49.662;10.060;2024-02-28T04:25:49;99516.03;;;4.39;95.50
51972;BME280;37991;49.662;10.060;2024-02-28T04:28:15;99534.66;;;4.49;95.83
51972;BME280;37991;49.662;10.060;2024-02-28T04:30:40;99528.69;;;4.47;95.98
51972;BME280;37991;49.662;10.060;2024-02-28T04:33:05;99534.66;;;4.49;95.60
51972;BME280;37991;49.662;10.060;2024-02-28T04:35:31;99527.72;;;4.49;95.84
51972;BME280;37991;49.662;10.060;2024-02-28T04:37:56;99538.19;;;4.48;96.08
51972;BME280;37991;49.662;10.060;2024-02-28T04:40:21;99534.28;;;4.58;95.66
51972;BME280;37991;49.662;10.060;2024-02-28T04:42:47;99542.31;;;4.52;95.46
51972;BME280;37991;49.662;10.060;2024-02-28T04:45:12;99540.56;;;4.52;95.72
51972;BME280;37991;49.662;10.060;2024-02-28T04:47:38;99534.41;;;4.55;95.58
51972;BME280;37991;49.662;10.060;2024-02-28T04:50:04;99544.56;;;4.59;95.37
51972;BME280;37991;49.662;10.060;2024-02-28T04:52:33;99550.38;;;4.66;95.21
51972;BME280;37991;49.662;10.060;2024-02-28T04:54:58;99551.28;;;4.65;94.66
51972;BME280;37991;49.662;10.060;2024-02-28T04:57:24;99548.81;;;4.62;94.58
51972;BME280;37991;49.662;10.060;2024-02-28T04:59:50;99546.22;;;4.62;94.25
51972;BME280;37991;49.662;10.060;2024-02-28T05:02:15;99554.31;;;4.54;94.64
51972;BME280;37991;49.662;10.060;2024-02-28T05:04:41;99559.44;;;4.56;94.73
51972;BME280;37991;49.662;10.060;2024-02-28T05:07:06;99563.63;;;4.60;94.82
51972;BME280;37991;49.662;10.060;2024-02-28T05:09:33;99553.22;;;4.60;94.64
51972;BME280;37991;49.662;10.060;2024-02-28T05:11:58;99554.06;;;4.60;94.42
51972;BME280;37991;49.662;10.060;2024-02-28T05:14:24;99555.13;;;4.56;94.83
51972;BME280;37991;49.662;10.060;2024-02-28T05:16:50;99549.13;;;4.54;94.58
51972;BME280;37991;49.662;10.060;2024-02-28T05:19:15;99558.72;;;4.52;94.76
51972;BME280;37991;49.662;10.060;2024-02-28T05:21:43;99564.84;;;4.51;94.84
51972;BME280;37991;49.662;10.060;2024-02-28T05:24:09;99570.06;;;4.50;95.20
51972;BME280;37991;49.662;10.060;2024-02-28T05:26:35;99567.22;;;4.56;95.84
51972;BME280;37991;49.662;10.060;2024-02-28T05:29:02;99558.69;;;4.54;95.28
51972;BME280;37991;49.662;10.060;2024-02-28T05:31:28;99565.28;;;4.61;95.54
51972;BME280;37991;49.662;10.060;2024-02-28T05:33:55;99573.78;;;4.64;95.37
51972;BME280;37991;49.662;10.060;2024-02-28T05:36:22;99574.56;;;4.66;95.46
51972;BME280;37991;49.662;10.060;2024-02-28T05:38:48;99577.34;;;4.62;95.62
51972;BME280;37991;49.662;10.060;2024-02-28T05:41:13;99579.81;;;4.65;94.88
51972;BME280;37991;49.662;10.060;2024-02-28T05:43:40;99583.31;;;4.64;94.93
51972;BME280;37991;49.662;10.060;2024-02-28T05:46:06;99579.19;;;4.60;94.79
51972;BME280;37991;49.662;10.060;2024-02-28T05:48:31;99588.66;;;4.61;95.17
51972;BME280;37991;49.662;10.060;2024-02-28T05:50:56;99586.75;;;4.64;94.77
51972;BME280;37991;49.662;10.060;2024-02-28T05:53:21;99580.53;;;4.69;94.74
51972;BME280;37991;49.662;10.060;2024-02-28T05:55:47;99576.34;;;4.66;94.33
51972;BME280;37991;49.662;10.060;2024-02-28T05:58:13;99576.47;;;4.63;94.52
51972;BME280;37991;49.662;10.060;2024-02-28T06:00:39;99583.38;;;4.62;94.30
51972;BME280;37991;49.662;10.060;2024-02-28T06:03:04;99582.38;;;4.66;94.44
51972;BME280;37991;49.662;10.060;2024-02-28T06:05:29;99584.38;;;4.60;94.63
51972;BME280;37991;49.662;10.060;2024-02-28T06:07:55;99582.41;;;4.65;95.20
51972;BME280;37991;49.662;10.060;2024-02-28T06:10:20;99576.38;;;4.64;95.13
51972;BME280;37991;49.662;10.060;2024-02-28T06:12:46;99583.38;;;4.62;94.79
51972;BME280;37991;49.662;10.060;2024-02-28T06:15:12;99596.06;;;4.70;94.33
51972;BME280;37991;49.662;10.060;2024-02-28T06:17:37;99607.16;;;4.74;95.04
51972;BME280;37991;49.662;10.060;2024-02-28T06:20:03;99609.16;;;4.67;94.44
51972;BME280;37991;49.662;10.060;2024-02-28T06:22:29;99606.47;;;4.69;94.04
51972;BME280;37991;49.662;10.060;2024-02-28T06:24:54;99609.16;;;4.67;94.09
51972;BME280;37991;49.662;10.060;2024-02-28T06:27:19;99608.91;;;4.73;94.57
51972;BME280;37991;49.662;10.060;2024-02-28T06:29:45;99614.59;;;4.61;94.18
51972;BME280;37991;49.662;10.060;2024-02-28T06:32:10;99613.88;;;4.57;94.79
51972;BME280;37991;49.662;10.060;2024-02-28T06:34:36;99614.66;;;4.59;94.98
51972;BME280;37991;49.662;10.060;2024-02-28T06:37:02;99621.66;;;4.57;95.22
51972;BME280;37991;49.662;10.060;2024-02-28T06:39:28;99621.63;;;4.79;95.20
51972;BME280;37991;49.662;10.060;2024-02-28T06:41:54;99616.31;;;4.82;94.66
51972;BME280;37991;49.662;10.060;2024-02-28T06:44:21;99622.47;;;4.80;95.12
51972;BME280;37991;49.662;10.060;2024-02-28T06:46:46;99635.44;;;4.80;94.91
51972;BME280;37991;49.662;10.060;2024-02-28T06:49:11;99639.66;;;4.82;94.94
51972;BME280;37991;49.662;10.060;2024-02-28T06:51:37;99638.22;;;4.75;94.37
51972;BME280;37991;49.662;10.060;2024-02-28T06:54:03;99645.69;;;4.83;94.58
51972;BME280;37991;49.662;10.060;2024-02-28T06:56:30;99645.75;;;4.81;94.37
51972;BME280;37991;49.662;10.060;2024-02-28T06:58:55;99635.50;;;4.78;94.02
51972;BME280;37991;49.662;10.060;2024-02-28T07:01:20;99648.16;;;4.86;94.05
51972;BME280;37991;49.662;10.060;2024-02-28T07:03:46;99650.81;;;4.84;93.67
51972;BME280;37991;49.662;10.060;2024-02-28T07:06:11;99654.44;;;4.80;94.15
51972;BME280;37991;49.662;10.060;2024-02-28T07:08:36;99648.28;;;4.83;93.72
51972;BME280;37991;49.662;10.060;2024-02-28T07:11:02;99654.44;;;4.80;93.78
51972;BME280;37991;49.662;10.060;2024-02-28T07:13:28;99653.66;;;4.78;93.75
51972;BME280;37991;49.662;10.060;2024-02-28T07:15:53;99661.88;;;4.89;93.38
51972;BME280;37991;49.662;10.060;2024-02-28T07:18:19;99664.91;;;4.79;93.34
51972;BME280;37991;49.662;10.060;2024-02-28T07:20:45;99665.94;;;4.75;93.45
51972;BME280;37991;49.662;10.060;2024-02-28T07:23:11;99663.53;;;4.70;94.07
51972;BME280;37991;49.662;10.060;2024-02-28T07:25:36;99673.78;;;4.73;93.72
51972;BME280;37991;49.662;10.060;2024-02-28T07:28:02;99664.63;;;4.64;93.64
51972;BME280;37991;49.662;10.060;2024-02-28T07:30:28;99666.19;;;4.69;93.56
51972;BME280;37991;49.662;10.060;2024-02-28T07:32:54;99670.78;;;4.62;93.79
51972;BME280;37991;49.662;10.060;2024-02-28T07:35:20;99667.16;;;4.66;93.98
51972;BME280;37991;49.662;10.060;2024-02-28T07:37:46;99673.44;;;4.60;93.62
51972;BME280;37991;49.662;10.060;2024-02-28T07:40:12;99679.22;;;4.67;93.72
51972;BME280;37991;49.662;10.060;2024-02-28T07:42:37;99678.88;;;4.54;93.90
51972;BME280;37991;49.662;10.060;2024-02-28T07:45:03;99691.78;;;4.56;93.73
51972;BME280;37991;49.662;10.060;2024-02-28T07:47:28;99690.75;;;4.60;94.50
51972;BME280;37991;49.662;10.060;2024-02-28T07:49:53;99687.97;;;4.64;94.42
51972;BME280;37991;49.662;10.060;2024-02-28T07:52:19;99685.50;;;4.61;94.14
51972;BME280;37991;49.662;10.060;2024-02-28T07:54:45;99689.78;;;4.62;93.57
51972;BME280;37991;49.662;10.060;2024-02-28T07:57:11;99704.69;;;4.79;93.36
51972;BME280;37991;49.662;10.060;2024-02-28T07:59:40;99700.25;;;4.81;93.52
51972;BME280;37991;49.662;10.060;2024-02-28T08:02:06;99707.03;;;4.85;93.15
51972;BME280;37991;49.662;10.060;2024-02-28T08:04:31;99700.09;;;4.86;92.82
51972;BME280;37991;49.662;10.060;2024-02-28T08:06:57;99706.38;;;4.80;92.60
51972;BME280;37991;49.662;10.060;2024-02-28T08:09:22;99712.41;;;4.81;92.25
51972;BME280;37991;49.662;10.060;2024-02-28T08:11:48;99723.38;;;4.87;92.49
51972;BME280;37991;49.662;10.060;2024-02-28T08:14:13;99729.25;;;4.93;93.33
51972;BME280;37991;49.662;10.060;2024-02-28T08:16:39;99721.22;;;4.99;91.97
51972;BME280;37991;49.662;10.060;2024-02-28T08:19:04;99722.97;;;4.98;91.82
51972;BME280;37991;49.662;10.060;2024-02-28T08:21:29;99718.84;;;4.93;91.11
51972;BME280;37991;49.662;10.060;2024-02-28T08:23:55;99724.97;;;4.92;91.07
51972;BME280;37991;49.662;10.060;2024-02-28T08:26:20;99731.75;;;4.94;91.60
51972;BME280;37991;49.662;10.060;2024-02-28T08:28:45;99723.25;;;4.90;91.10
51972;BME280;37991;49.662;10.060;2024-02-28T08:31:11;99728.44;;;4.90;91.47
51972;BME280;37991;49.662;10.060;2024-02-28T08:33:36;99729.75;;;5.01;91.45
51972;BME280;37991;49.662;10.060;2024-02-28T08:36:02;99736.06;;;4.95;90.99
51972;BME280;37991;49.662;10.060;2024-02-28T08:38:27;99733.72;;;4.89;90.77
51972;BME280;37991;49.662;10.060;2024-02-28T08:40:53;99736.41;;;5.08;91.05
51972;BME280;37991;49.662;10.060;2024-02-28T08:43:18;99742.56;;;5.05;90.39
51972;BME280;37991;49.662;10.060;2024-02-28T08:45:43;99740.88;;;5.04;90.58
51972;BME280;37991;49.662;10.060;2024-02-28T08:48:09;99730.63;;;5.01;90.15
51972;BME280;37991;49.662;10.060;2024-02-28T08:50:34;99744.31;;;5.05;90.85
51972;BME280;37991;49.662;10.060;2024-02-28T08:53:00;99736.59;;;5.03;90.23
51972;BME280;37991;49.662;10.060;2024-02-28T08:55:25;99728.19;;;4.97;90.22
51972;BME280;37991;49.662;10.060;2024-02-28T08:57:51;99740.75;;;5.07;90.24
51972;BME280;37991;49.662;10.060;2024-02-28T09:00:16;99744.31;;;5.05;90.16
51972;BME280;37991;49.662;10.060;2024-02-28T09:02:43;99731.50;;;5.00;89.58
51972;BME280;37991;49.662;10.060;2024-02-28T09:05:08;99734.56;;;5.10;89.05
51972;BME280;37991;49.662;10.060;2024-02-28T09:07:34;99736.94;;;5.16;89.25
51972;BME280;37991;49.662;10.060;2024-02-28T09:10:03;99742.78;;;5.21;88.26
51972;BME280;37991;49.662;10.060;2024-02-28T09:12:30;99743.50;;;5.25;88.69
51972;BME280;37991;49.662;10.060;2024-02-28T09:14:55;99744.03;;;5.33;88.30
51972;BME280;37991;49.662;10.060;2024-02-28T09:17:23;99744.34;;;5.46;89.18
51972;BME280;37991;49.662;10.060;2024-02-28T09:19:48;99751.22;;;5.47;88.17
51972;BME280;37991;49.662;10.060;2024-02-28T09:22:13;99751.81;;;5.53;87.48
51972;BME280;37991;49.662;10.060;2024-02-28T09:24:40;99748.38;;;5.53;86.96
51972;BME280;37991;49.662;10.060;2024-02-28T09:27:06;99748.00;;;5.62;87.15
51972;BME280;37991;49.662;10.060;2024-02-28T09:29:31;99751.47;;;5.81;88.62
51972;BME280;37991;49.662;10.060;2024-02-28T09:31:57;99757.06;;;5.93;88.63
51972;BME280;37991;49.662;10.060;2024-02-28T09:34:22;99755.47;;;5.89;86.91
51972;BME280;37991;49.662;10.060;2024-02-28T09:36:47;99756.16;;;5.94;86.53
51972;BME280;37991;49.662;10.060;2024-02-28T09:39:14;99751.31;;;6.05;85.62
51972;BME280;37991;49.662;10.060;2024-02-28T09:41:42;99754.28;;;6.16;86.65
51972;BME280;37991;49.662;10.060;2024-02-28T09:44:08;99752.94;;;6.26;86.53
51972;BME280;37991;49.662;10.060;2024-02-28T09:46:34;99756.75;;;6.38;86.22
51972;BME280;37991;49.662;10.060;2024-02-28T09:49:03;99749.44;;;6.46;86.26
51972;BME280;37991;49.662;10.060;2024-02-28T09:51:32;99758.56;;;6.55;84.95
51972;BME280;37991;49.662;10.060;2024-02-28T09:53:58;99761.03;;;6.58;84.33
51972;BME280;37991;49.662;10.060;2024-02-28T09:56:25;99767.63;;;6.65;85.04
51972;BME280;37991;49.662;10.060;2024-02-28T09:58:51;99764.75;;;6.71;83.68
51972;BME280;37991;49.662;10.060;2024-02-28T10:01:19;99767.50;;;6.68;82.36
51972;BME280;37991;49.662;10.060;2024-02-28T10:03:47;99769.03;;;6.53;81.75
51972;BME280;37991;49.662;10.060;2024-02-28T10:06:14;99766.84;;;6.44;81.67
51972;BME280;37991;49.662;10.060;2024-02-28T10:08:41;99771.31;;;6.42;81.62
51972;BME280;37991;49.662;10.060;2024-02-28T10:11:06;99767.66;;;6.46;81.80
51972;BME280;37991;49.662;10.060;2024-02-28T10:13:31;99762.78;;;6.58;81.79
51972;BME280;37991;49.662;10.060;2024-02-28T10:15:57;99769.81;;;6.56;81.19
51972;BME280;37991;49.662;10.060;2024-02-28T10:18:22;99766.09;;;6.61;80.83
51972;BME280;37991;49.662;10.060;2024-02-28T10:20:48;99768.47;;;6.66;80.43
51972;BME280;37991;49.662;10.060;2024-02-28T10:23:14;99775.03;;;6.56;80.36
51972;BME280;37991;49.662;10.060;2024-02-28T10:25:43;99787.19;;;6.74;81.58
51972;BME280;37991;49.662;10.060;2024-02-28T10:28:09;99784.34;;;6.79;81.71
51972;BME280;37991;49.662;10.060;2024-02-28T10:30:39;99784.72;;;6.90;81.10
51972;BME280;37991;49.662;10.060;2024-02-28T10:33:05;99788.41;;;7.03;81.25
51972;BME280;37991;49.662;10.060;2024-02-28T10:35:34;99794.06;;;7.11;81.63
51972;BME280;37991;49.662;10.060;2024-02-28T10:38:00;99800.31;;;7.26;80.86
51972;BME280;37991;49.662;10.060;2024-02-28T10:40:26;99794.78;;;7.32;81.19
51972;BME280;37991;49.662;10.060;2024-02-28T10:42:53;99797.88;;;7.40;80.27
51972;BME280;37991;49.662;10.060;2024-02-28T10:45:20;99797.41;;;7.50;80.18
51972;BME280;37991;49.662;10.060;2024-02-28T10:47:46;99792.31;;;7.46;78.88
51972;BME280;37991;49.662;10.060;2024-02-28T10:50:13;99806.00;;;7.52;78.58
51972;BME280;37991;49.662;10.060;2024-02-28T10:52:43;99807.22;;;7.62;78.08
51972;BME280;37991;49.662;10.060;2024-02-28T10:55:09;99809.66;;;7.65;78.01
51972;BME280;37991;49.662;10.060;2024-02-28T10:57:36;99812.19;;;7.49;76.78
51972;BME280;37991;49.662;10.060;2024-02-28T11:00:03;99810.88;;;7.23;76.35
51972;BME280;37991;49.662;10.060;2024-02-28T11:02:31;99815.69;;;7.13;77.88
51972;BME280;37991;49.662;10.060;2024-02-28T11:04:56;99817.91;;;7.21;78.78
51972;BME280;37991;49.662;10.060;2024-02-28T11:07:24;99826.22;;;7.29;79.06
51972;BME280;37991;49.662;10.060;2024-02-28T11:09:56;99824.28;;;7.15;78.81
51972;BME280;37991;49.662;10.060;2024-02-28T11:12:25;99830.78;;;7.07;78.87
51972;BME280;37991;49.662;10.060;2024-02-28T11:14:57;99827.75;;;7.16;79.85
51972;BME280;37991;49.662;10.060;2024-02-28T11:17:26;99834.44;;;7.39;79.67
51972;BME280;37991;49.662;10.060;2024-02-28T11:19:53;99821.50;;;7.37;80.25
51972;BME280;37991;49.662;10.060;2024-02-28T11:22:18;99824.09;;;7.37;80.02
51972;BME280;37991;49.662;10.060;2024-02-28T11:24:44;99822.63;;;7.49;79.59
51972;BME280;37991;49.662;10.060;2024-02-28T11:27:12;99821.63;;;7.52;78.13
51972;BME280;37991;49.662;10.060;2024-02-28T11:29:39;99816.38;;;7.53;78.31
51972;BME280;37991;49.662;10.060;2024-02-28T11:32:05;99814.44;;;7.57;78.33
51972;BME280;37991;49.662;10.060;2024-02-28T11:34:30;99807.38;;;7.59;78.87
51972;BME280;37991;49.662;10.060;2024-02-28T11:36:56;99806.91;;;7.68;77.65
51972;BME280;37991;49.662;10.060;2024-02-28T11:39:24;99805.91;;;7.71;77.84
51972;BME280;37991;49.662;10.060;2024-02-28T11:41:53;99812.50;;;7.78;77.22
51972;BME280;37991;49.662;10.060;2024-02-28T11:44:18;99811.50;;;7.80;76.21
51972;BME280;37991;49.662;10.060;2024-02-28T11:46:48;99814.94;;;7.81;75.74
51972;BME280;37991;49.662;10.060;2024-02-28T11:49:14;99809.72;;;7.81;75.30
51972;BME280;37991;49.662;10.060;2024-02-28T11:51:41;99815.56;;;7.86;76.06
51972;BME280;37991;49.662;10.060;2024-02-28T11:54:08;99799.69;;;7.73;74.35
51972;BME280;37991;49.662;10.060;2024-02-28T11:56:40;99803.59;;;7.64;74.44
51972;BME280;37991;49.662;10.060;2024-02-28T11:59:06;99797.56;;;7.64;74.90
51972;BME280;37991;49.662;10.060;2024-02-28T12:01:43;99799.03;;;7.69;76.13
51972;BME280;37991;49.662;10.060;2024-02-28T12:04:12;99799.53;;;7.76;74.80
51972;BME280;37991;49.662;10.060;2024-02-28T12:06:38;99798.41;;;7.82;72.58
51972;BME280;37991;49.662;10.060;2024-02-28T12:09:05;99793.72;;;7.71;72.47
51972;BME280;37991;49.662;10.060;2024-02-28T12:11:34;99808.28;;;7.75;72.97
51972;BME280;37991;49.662;10.060;2024-02-28T12:14:03;99797.69;;;7.78;74.64
51972;BME280;37991;49.662;10.060;2024-02-28T12:16:29;99801.75;;;7.84;75.73
51972;BME280;37991;49.662;10.060;2024-02-28T12:18:55;99796.31;;;7.88;74.67
51972;BME280;37991;49.662;10.060;2024-02-28T12:21:20;99788.50;;;7.88;72.32
51972;BME280;37991;49.662;10.060;2024-02-28T12:23:46;99783.13;;;7.91;72.37
51972;BME280;37991;49.662;10.060;2024-02-28T12:26:13;99785.88;;;7.88;72.81
51972;BME280;37991;49.662;10.060;2024-02-28T12:28:39;99791.47;;;7.98;72.90
51972;BME280;37991;49.662;10.060;2024-02-28T12:31:05;99785.06;;;8.04;72.17
51972;BME280;37991;49.662;10.060;2024-02-28T12:33:34;99772.72;;;8.07;70.59
51972;BME280;37991;49.662;10.060;2024-02-28T12:35:59;99777.94;;;8.07;70.87
51972;BME280;37991;49.662;10.060;2024-02-28T12:38:28;99779.50;;;8.10;72.75
51972;BME280;37991;49.662;10.060;2024-02-28T12:40:54;99774.91;;;8.15;72.64
51972;BME280;37991;49.662;10.060;2024-02-28T12:43:19;99768.84;;;8.14;72.56
51972;BME280;37991;49.662;10.060;2024-02-28T12:45:45;99762.63;;;8.17;70.90
51972;BME280;37991;49.662;10.060;2024-02-28T12:48:10;99749.66;;;8.15;69.52
51972;BME280;37991;49.662;10.060;2024-02-28T12:50:36;99752.19;;;8.17;69.18
51972;BME280;37991;49.662;10.060;2024-02-28T12:53:01;99747.88;;;8.16;69.06